»·PEaware :: UAL576 KABQ-KSUN

UAL576 :: KABQ-KSUN

FLIGHT INFORMATION

Flight Status: Arrived
Operator:
United Airlines
More flights by this operator :: More flights under this callsign
Pilot: Anonymous 8274 (8274)
Aircraft: BOEING 737-200
(B732)
More flights by this aircraft type
Origin: KABQ Albuquerque Intl Sunport
United States
Destination: KSUN Friedman Meml
United States
More flights between these airports :: More routes between these airports
Route: LARGO3 RSK J15 TWF V484 KINZE V444 SOLDE
File this flight plan on PilotEdge
Remarks:
Altitude:
(Current/Filed)
28,000ft
Speed:
(Current/Filed)
470kts
Departed: 04-Oct-18 05:07 PM
Arrived: 04-Oct-18 07:03 PM
Distance/Time
Traveled:
620nm/1:56
Distance/Time
To Go:
Arrived

Flight Plot

Page will automatically refresh every two minutes.

Flight plan parsing failed; only flown route is shown


Map Options




Map Legend


Flown Route
Filed Route
Departure Airport
Arrival Airport
Navaid (VOR, NDB)
Fix

Horizontal Profiles

Position Reports

Time Latitude Longitude Heading Altitude Ground
Speed
04-Oct-18 16:28 35.048780 -106.615302 180 5317ft 0kts
04-Oct-18 16:29 35.048780 -106.615302 180 5317ft 0kts
04-Oct-18 16:30 35.048780 -106.615302 180 5317ft 0kts
04-Oct-18 16:31 35.048780 -106.615302 180 5317ft 0kts
04-Oct-18 16:32 35.048780 -106.615302 180 5317ft 0kts
04-Oct-18 16:33 35.048780 -106.615302 180 5317ft 0kts
04-Oct-18 16:34 35.048780 -106.615302 180 5317ft 0kts
04-Oct-18 16:35 35.048780 -106.615302 180 5317ft 0kts
04-Oct-18 16:36 35.048780 -106.615302 180 5317ft 0kts
04-Oct-18 16:37 35.048780 -106.615302 180 5317ft 0kts
04-Oct-18 16:38 35.048780 -106.615302 180 5317ft 0kts
04-Oct-18 16:39 35.048780 -106.615302 180 5317ft 0kts
04-Oct-18 16:40 35.048780 -106.615302 180 5317ft 0kts
04-Oct-18 16:41 35.048780 -106.615302 180 5317ft 0kts
04-Oct-18 16:42 35.048780 -106.615302 180 5317ft 0kts
04-Oct-18 16:43 35.048780 -106.615302 180 5317ft 0kts
04-Oct-18 16:44 35.048780 -106.615302 180 5317ft 0kts
04-Oct-18 16:45 35.048780 -106.615302 180 5317ft 0kts
04-Oct-18 16:46 35.048780 -106.615302 180 5317ft 0kts
04-Oct-18 16:47 35.048780 -106.615302 180 5317ft 0kts
04-Oct-18 16:48 35.048780 -106.615302 180 5317ft 0kts
04-Oct-18 16:49 35.048780 -106.615302 180 5317ft 0kts
04-Oct-18 16:50 35.048780 -106.615302 180 5317ft 0kts
04-Oct-18 16:51 35.048780 -106.615302 180 5317ft 0kts
04-Oct-18 16:52 35.048780 -106.615302 180 5317ft 0kts
04-Oct-18 16:53 35.048780 -106.615302 180 5317ft 0kts
04-Oct-18 16:54 35.048780 -106.615302 180 5317ft 0kts
04-Oct-18 16:55 35.048780 -106.615302 180 5317ft 0kts
04-Oct-18 16:56 35.048595 -106.615305 179 5318ft 3kts
04-Oct-18 16:57 35.048343 -106.614148 89 5317ft 3kts
04-Oct-18 16:58 35.048348 -106.613425 89 5317ft 0kts
04-Oct-18 16:59 35.046796 -106.613106 181 5318ft 9kts
04-Oct-18 17:00 35.045804 -106.610092 90 5317ft 15kts
04-Oct-18 17:01 35.045767 -106.606773 89 5317ft 7kts
04-Oct-18 17:02 35.045743 -106.600001 86 5317ft 30kts
04-Oct-18 17:03 35.045794 -106.589171 90 5317ft 30kts
04-Oct-18 17:04 35.045737 -106.579341 89 5318ft 27kts
04-Oct-18 17:05 35.045194 -106.575740 166 5317ft 0kts
04-Oct-18 17:06 35.045194 -106.575740 166 5317ft 0kts
04-Oct-18 17:07 35.045194 -106.575740 166 5317ft 0kts
04-Oct-18 17:08 35.044077 -106.577046 269 5317ft 19kts
04-Oct-18 17:09 35.044343 -106.615946 268 5909ft 156kts
04-Oct-18 17:10 35.042492 -106.675316 267 7371ft 207kts
04-Oct-18 17:11 35.039734 -106.752972 267 9080ft 256kts
04-Oct-18 17:12 35.046706 -106.843659 306 10744ft 300kts
04-Oct-18 17:13 35.131086 -106.865102 4 12304ft 343kts
04-Oct-18 17:14 35.226569 -106.852745 4 14405ft 352kts
04-Oct-18 17:15 35.325284 -106.856982 346 16094ft 365kts
04-Oct-18 17:16 35.424262 -106.879348 349 18022ft 365kts
04-Oct-18 17:17 35.525883 -106.894639 353 19422ft 375kts
04-Oct-18 17:18 35.631460 -106.905045 353 20608ft 387kts
04-Oct-18 17:19 35.739275 -106.918433 350 21719ft 395kts
04-Oct-18 17:20 35.849104 -106.937292 351 22732ft 404kts
04-Oct-18 17:21 35.960299 -106.957401 351 23658ft 411kts
04-Oct-18 17:22 36.062900 -107.009162 306 24465ft 413kts
04-Oct-18 17:23 36.122830 -107.130017 298 25261ft 416kts
04-Oct-18 17:24 36.184857 -107.250921 303 25966ft 422kts
04-Oct-18 17:25 36.256140 -107.367075 307 26609ft 427kts
04-Oct-18 17:26 36.332404 -107.480810 308 27200ft 431kts
04-Oct-18 17:27 36.411267 -107.591335 311 27913ft 431kts
04-Oct-18 17:28 36.492748 -107.701348 307 28104ft 441kts
04-Oct-18 17:29 36.567845 -107.823638 304 28106ft 453kts
04-Oct-18 17:30 36.645858 -107.946596 306 28102ft 452kts
04-Oct-18 17:31 36.728549 -108.063646 310 28103ft 452kts
04-Oct-18 17:32 36.835622 -108.136732 347 28109ft 457kts
04-Oct-18 17:33 36.959201 -108.161605 352 28106ft 460kts
04-Oct-18 17:34 37.083559 -108.191213 342 28157ft 457kts
04-Oct-18 17:36 37.325042 -108.270504 344 28127ft 459kts
04-Oct-18 17:37 37.448733 -108.306892 344 28128ft 459kts
04-Oct-18 17:38 37.572257 -108.343190 344 28128ft 460kts
04-Oct-18 17:39 37.696054 -108.379493 344 28125ft 460kts
04-Oct-18 17:40 37.820083 -108.415588 344 28129ft 461kts
04-Oct-18 17:41 37.944212 -108.451953 344 28130ft 461kts
04-Oct-18 17:42 38.068710 -108.488386 344 28130ft 461kts
04-Oct-18 17:43 38.182941 -108.521782 344 28126ft 461kts
04-Oct-18 17:44 38.307167 -108.558056 345 28126ft 460kts
04-Oct-18 17:45 38.430940 -108.594154 345 28127ft 460kts
04-Oct-18 17:46 38.555260 -108.630376 345 28128ft 460kts
04-Oct-18 17:47 38.670131 -108.663805 344 28066ft 462kts
04-Oct-18 17:48 38.792223 -108.707337 340 28048ft 461kts
04-Oct-18 17:49 38.914913 -108.754216 340 28051ft 461kts
04-Oct-18 17:50 39.037763 -108.801293 340 28051ft 461kts
04-Oct-18 17:51 39.151397 -108.844804 340 28047ft 462kts
04-Oct-18 17:52 39.273937 -108.891715 340 28048ft 461kts
04-Oct-18 17:53 39.371517 -108.981871 288 28051ft 438kts
04-Oct-18 17:54 39.385835 -109.132933 271 28047ft 431kts
04-Oct-18 17:55 39.395066 -109.285609 272 27997ft 433kts
04-Oct-18 17:56 39.418510 -109.435925 302 28045ft 442kts
04-Oct-18 17:57 39.498212 -109.556189 308 28046ft 445kts
04-Oct-18 17:58 39.566984 -109.665340 303 28049ft 444kts
04-Oct-18 17:59 39.636970 -109.785582 304 28030ft 444kts
04-Oct-18 18:00 39.697303 -109.892626 303 28047ft 439kts
04-Oct-18 18:01 39.778650 -110.042765 303 28048ft 434kts
04-Oct-18 18:02 39.847709 -110.170324 303 28047ft 431kts
04-Oct-18 18:03 39.916555 -110.297613 303 28046ft 428kts
04-Oct-18 18:04 39.984480 -110.423320 303 28046ft 426kts
04-Oct-18 18:05 40.052552 -110.549412 303 28045ft 425kts
04-Oct-18 18:06 40.116622 -110.663565 305 28048ft 424kts
04-Oct-18 18:07 40.172697 -110.760115 305 28049ft 424kts
04-Oct-18 18:08 40.255720 -110.903248 305 27995ft 424kts
04-Oct-18 18:09 40.315290 -111.004983 307 27994ft 424kts
04-Oct-18 18:10 40.389393 -111.124835 307 27995ft 424kts
04-Oct-18 18:11 40.463599 -111.244081 308 27993ft 423kts
04-Oct-18 18:12 40.529584 -111.370911 301 27993ft 421kts
04-Oct-18 18:13 40.591411 -111.501300 301 27992ft 421kts
04-Oct-18 18:14 40.655741 -111.629790 304 27979ft 421kts
04-Oct-18 18:15 40.720657 -111.750920 306 27966ft 422kts
04-Oct-18 18:16 40.790373 -111.874480 303 27968ft 421kts
04-Oct-18 18:17 40.861207 -111.997178 307 27967ft 421kts
04-Oct-18 18:18 40.937505 -112.114372 310 27968ft 422kts
04-Oct-18 18:19 41.014039 -112.230187 310 27959ft 422kts
04-Oct-18 18:20 41.090988 -112.346313 310 27938ft 422kts
04-Oct-18 18:21 41.166770 -112.454347 313 27939ft 422kts
04-Oct-18 18:22 41.248414 -112.564994 313 27938ft 422kts
04-Oct-18 18:23 41.324158 -112.680155 309 27942ft 422kts
04-Oct-18 18:24 41.399865 -112.799118 309 27942ft 424kts
04-Oct-18 18:25 41.476087 -112.918932 309 27941ft 427kts
04-Oct-18 18:26 41.552907 -113.039719 309 27940ft 429kts
04-Oct-18 18:27 41.630037 -113.160939 309 27940ft 430kts
04-Oct-18 18:28 41.707660 -113.282923 309 27939ft 431kts
04-Oct-18 18:29 41.784949 -113.404317 310 27938ft 432kts
04-Oct-18 18:30 41.862295 -113.525685 310 28018ft 430kts
04-Oct-18 18:31 41.940110 -113.647572 310 28018ft 431kts
04-Oct-18 18:32 42.015267 -113.765220 309 28021ft 432kts
04-Oct-18 18:33 42.093890 -113.886919 312 28020ft 433kts
04-Oct-18 18:34 42.173598 -114.005082 312 28022ft 434kts
04-Oct-18 18:35 42.253864 -114.125969 310 28011ft 425kts
04-Oct-18 18:36 42.326326 -114.241178 310 26149ft 396kts
04-Oct-18 18:37 42.395759 -114.351797 308 23814ft 382kts
04-Oct-18 18:38 42.460543 -114.461235 309 21551ft 369kts
04-Oct-18 18:39 42.544238 -114.518888 9 19297ft 367kts
04-Oct-18 18:40 42.637789 -114.469166 20 17153ft 358kts
04-Oct-18 18:41 42.731901 -114.450905 4 15132ft 341kts
04-Oct-18 18:42 42.825041 -114.435633 4 15047ft 339kts
04-Oct-18 18:43 42.918366 -114.414341 7 15048ft 347kts
04-Oct-18 18:44 43.013978 -114.401264 359 15042ft 350kts
04-Oct-18 18:45 43.104427 -114.416380 321 14324ft 327kts
04-Oct-18 18:46 43.172644 -114.495137 321 12022ft 328kts
04-Oct-18 18:47 43.243577 -114.565499 323 9986ft 291kts
04-Oct-18 18:48 43.315182 -114.560966 56 10005ft 287kts
04-Oct-18 18:49 43.319699 -114.462630 102 9786ft 245kts
04-Oct-18 18:50 43.306324 -114.371265 102 8798ft 244kts
04-Oct-18 18:51 43.322071 -114.280805 72 8780ft 245kts
04-Oct-18 18:52 43.315959 -114.208883 164 8813ft 199kts
04-Oct-18 18:53 43.260025 -114.212570 183 8792ft 202kts
04-Oct-18 18:54 43.205489 -114.213948 205 8496ft 199kts
04-Oct-18 18:55 43.160170 -114.255560 212 8105ft 196kts
04-Oct-18 18:56 43.116043 -114.257273 106 8116ft 187kts
04-Oct-18 18:57 43.148905 -114.206509 32 8100ft 201kts
04-Oct-18 18:58 43.200969 -114.204810 344 8082ft 199kts
04-Oct-18 18:59 43.252648 -114.222057 349 8095ft 190kts
04-Oct-18 19:00 43.303715 -114.236683 349 8090ft 186kts
04-Oct-18 19:01 43.353302 -114.250973 349 8053ft 181kts
04-Oct-18 19:02 43.398274 -114.262440 359 7869ft 157kts
04-Oct-18 19:03 43.441650 -114.262428 3 7040ft 157kts
04-Oct-18 19:04 43.482484 -114.274823 324 5711ft 155kts
04-Oct-18 19:05 43.508579 -114.300202 324 5299ft 18kts
04-Oct-18 19:06 43.507868 -114.301160 187 5299ft 7kts

Navigation Log

Ident Type
Flight plan parsing failed, navigation log unavailable